sensor_id;sensor_type;location;lat;lon;timestamp;temperature;humidity
9167;DHT22;4618;48.818;9.088;2022-10-16T00:00:18;15.50;1.00
9167;DHT22;4618;48.818;9.088;2022-10-16T00:02:44;15.40;1.00
9167;DHT22;4618;48.818;9.088;2022-10-16T00:05:09;15.40;1.00
9167;DHT22;4618;48.818;9.088;2022-10-16T00:07:35;15.40;1.00
9167;DHT22;4618;48.818;9.088;2022-10-16T00:10:00;15.40;6.20
9167;DHT22;4618;48.818;9.088;2022-10-16T00:12:26;15.30;99.90
9167;DHT22;4618;48.818;9.088;2022-10-16T00:14:52;15.30;99.90
9167;DHT22;4618;48.818;9.088;2022-10-16T00:17:17;15.40;1.00
9167;DHT22;4618;48.818;9.088;2022-10-16T00:19:43;15.50;1.00
9167;DHT22;4618;48.818;9.088;2022-10-16T00:22:08;15.60;99.90
9167;DHT22;4618;48.818;9.088;2022-10-16T00:24:34;15.60;99.90
9167;DHT22;4618;48.818;9.088;2022-10-16T00:26:59;15.60;99.90
9167;DHT22;4618;48.818;9.088;2022-10-16T00:29:25;15.60;99.90
9167;DHT22;4618;48.818;9.088;2022-10-16T00:31:51;15.60;99.90
9167;DHT22;4618;48.818;9.088;2022-10-16T00:34:16;15.50;99.90
9167;DHT22;4618;48.818;9.088;2022-10-16T00:36:42;15.50;99.90
9167;DHT22;4618;48.818;9.088;2022-10-16T00:39:07;15.50;99.90
9167;DHT22;4618;48.818;9.088;2022-10-16T00:41:33;15.30;1.00
9167;DHT22;4618;48.818;9.088;2022-10-16T00:44:01;15.30;1.00
9167;DHT22;4618;48.818;9.088;2022-10-16T00:46:37;15.30;1.00
9167;DHT22;4618;48.818;9.088;2022-10-16T00:49:08;15.30;1.00
9167;DHT22;4618;48.818;9.088;2022-10-16T00:51:39;15.30;1.00
9167;DHT22;4618;48.818;9.088;2022-10-16T00:54:31;15.30;1.00
9167;DHT22;4618;48.818;9.088;2022-10-16T00:56:57;15.30;1.00
9167;DHT22;4618;48.818;9.088;2022-10-16T00:59:29;15.40;1.00
9167;DHT22;4618;48.818;9.088;2022-10-16T01:01:57;15.50;99.90
9167;DHT22;4618;48.818;9.088;2022-10-16T01:04:23;15.60;1.00
9167;DHT22;4618;48.818;9.088;2022-10-16T01:12:40;15.90;1.00
9167;DHT22;4618;48.818;9.088;2022-10-16T01:20:33;15.70;61.30
9167;DHT22;4618;48.818;9.088;2022-10-16T01:28:58;15.50;1.00
9167;DHT22;4618;48.818;9.088;2022-10-16T01:31:31;15.50;1.00
9167;DHT22;4618;48.818;9.088;2022-10-16T01:34:19;15.50;99.90
9167;DHT22;4618;48.818;9.088;2022-10-16T01:36:55;15.40;1.00
9167;DHT22;4618;48.818;9.088;2022-10-16T01:39:22;15.30;1.00
9167;DHT22;4618;48.818;9.088;2022-10-16T01:41:56;15.20;10.00
9167;DHT22;4618;48.818;9.088;2022-10-16T01:44:30;15.20;34.80
9167;DHT22;4618;48.818;9.088;2022-10-16T01:46:56;15.20;13.40
9167;DHT22;4618;48.818;9.088;2022-10-16T01:49:25;15.20;99.90
9167;DHT22;4618;48.818;9.088;2022-10-16T01:51:54;15.20;89.50
9167;DHT22;4618;48.818;9.088;2022-10-16T01:54:23;15.30;20.70
9167;DHT22;4618;48.818;9.088;2022-10-16T01:56:51;15.30;34.70
9167;DHT22;4618;48.818;9.088;2022-10-16T01:59:20;15.30;1.00
9167;DHT22;4618;48.818;9.088;2022-10-16T02:01:52;15.30;1.00
9167;DHT22;4618;48.818;9.088;2022-10-16T02:04:28;15.30;99.90
9167;DHT22;4618;48.818;9.088;2022-10-16T02:06:54;15.20;99.90
9167;DHT22;4618;48.818;9.088;2022-10-16T02:09:20;15.10;99.90
9167;DHT22;4618;48.818;9.088;2022-10-16T02:11:46;15.20;99.90
9167;DHT22;4618;48.818;9.088;2022-10-16T02:14:12;15.30;99.90
9167;DHT22;4618;48.818;9.088;2022-10-16T02:16:43;15.30;17.40
9167;DHT22;4618;48.818;9.088;2022-10-16T02:19:09;15.30;1.00
9167;DHT22;4618;48.818;9.088;2022-10-16T02:21:43;15.50;1.00
9167;DHT22;4618;48.818;9.088;2022-10-16T02:26:57;15.70;99.90
9167;DHT22;4618;48.818;9.088;2022-10-16T02:29:26;15.60;99.90
9167;DHT22;4618;48.818;9.088;2022-10-16T02:32:01;15.60;99.90
9167;DHT22;4618;48.818;9.088;2022-10-16T02:34:28;15.50;1.00
9167;DHT22;4618;48.818;9.088;2022-10-16T02:36:56;15.40;1.00
9167;DHT22;4618;48.818;9.088;2022-10-16T02:39:22;15.40;1.00
9167;DHT22;4618;48.818;9.088;2022-10-16T02:41:48;15.30;1.00
9167;DHT22;4618;48.818;9.088;2022-10-16T02:44:14;15.30;1.00
9167;DHT22;4618;48.818;9.088;2022-10-16T02:46:39;15.30;1.00
9167;DHT22;4618;48.818;9.088;2022-10-16T02:49:05;15.20;99.90
9167;DHT22;4618;48.818;9.088;2022-10-16T02:51:30;15.20;99.90
9167;DHT22;4618;48.818;9.088;2022-10-16T02:53:56;15.20;99.90
9167;DHT22;4618;48.818;9.088;2022-10-16T02:56:22;15.00;99.90
9167;DHT22;4618;48.818;9.088;2022-10-16T02:58:47;15.10;99.90
9167;DHT22;4618;48.818;9.088;2022-10-16T03:01:13;15.20;99.90
9167;DHT22;4618;48.818;9.088;2022-10-16T03:03:39;15.10;99.90
9167;DHT22;4618;48.818;9.088;2022-10-16T03:06:05;15.20;99.90
9167;DHT22;4618;48.818;9.088;2022-10-16T03:08:31;15.20;99.90
9167;DHT22;4618;48.818;9.088;2022-10-16T03:10:57;15.30;7.50
9167;DHT22;4618;48.818;9.088;2022-10-16T03:13:22;15.10;99.90
9167;DHT22;4618;48.818;9.088;2022-10-16T03:15:48;15.20;99.90
9167;DHT22;4618;48.818;9.088;2022-10-16T03:18:13;15.10;99.90
9167;DHT22;4618;48.818;9.088;2022-10-16T03:20:39;15.10;99.90
9167;DHT22;4618;48.818;9.088;2022-10-16T03:23:05;14.90;99.90
9167;DHT22;4618;48.818;9.088;2022-10-16T03:25:32;15.00;99.90
9167;DHT22;4618;48.818;9.088;2022-10-16T03:27:57;15.00;99.90
9167;DHT22;4618;48.818;9.088;2022-10-16T03:30:23;15.00;99.90
9167;DHT22;4618;48.818;9.088;2022-10-16T03:32:48;14.90;1.00
9167;DHT22;4618;48.818;9.088;2022-10-16T03:35:22;15.00;1.00
9167;DHT22;4618;48.818;9.088;2022-10-16T03:37:48;14.90;1.00
9167;DHT22;4618;48.818;9.088;2022-10-16T03:40:14;14.90;1.00
9167;DHT22;4618;48.818;9.088;2022-10-16T03:42:39;14.90;1.00
9167;DHT22;4618;48.818;9.088;2022-10-16T03:45:05;14.90;1.00
9167;DHT22;4618;48.818;9.088;2022-10-16T03:47:31;14.90;1.00
9167;DHT22;4618;48.818;9.088;2022-10-16T03:49:58;14.90;1.00
9167;DHT22;4618;48.818;9.088;2022-10-16T03:52:24;14.90;1.00
9167;DHT22;4618;48.818;9.088;2022-10-16T03:54:50;14.90;99.90
9167;DHT22;4618;48.818;9.088;2022-10-16T03:57:16;14.90;1.00
9167;DHT22;4618;48.818;9.088;2022-10-16T03:59:42;14.90;1.00
9167;DHT22;4618;48.818;9.088;2022-10-16T04:02:07;14.90;1.00
9167;DHT22;4618;48.818;9.088;2022-10-16T04:04:33;15.00;99.90
9167;DHT22;4618;48.818;9.088;2022-10-16T04:06:58;15.00;99.90
9167;DHT22;4618;48.818;9.088;2022-10-16T04:09:24;15.00;99.90
9167;DHT22;4618;48.818;9.088;2022-10-16T04:11:50;15.00;99.90
9167;DHT22;4618;48.818;9.088;2022-10-16T04:14:16;15.00;99.90
9167;DHT22;4618;48.818;9.088;2022-10-16T04:16:41;15.00;99.90
9167;DHT22;4618;48.818;9.088;2022-10-16T04:19:07;14.90;99.90
9167;DHT22;4618;48.818;9.088;2022-10-16T04:21:32;14.90;99.90
9167;DHT22;4618;48.818;9.088;2022-10-16T04:23:58;14.90;99.90
9167;DHT22;4618;48.818;9.088;2022-10-16T04:26:23;15.10;46.60
9167;DHT22;4618;48.818;9.088;2022-10-16T04:28:49;15.10;53.60
9167;DHT22;4618;48.818;9.088;2022-10-16T04:31:14;15.10;99.90
9167;DHT22;4618;48.818;9.088;2022-10-16T04:33:42;15.00;99.90
9167;DHT22;4618;48.818;9.088;2022-10-16T04:36:08;15.10;99.90
9167;DHT22;4618;48.818;9.088;2022-10-16T04:38:34;15.10;1.00
9167;DHT22;4618;48.818;9.088;2022-10-16T04:40:59;14.90;99.90
9167;DHT22;4618;48.818;9.088;2022-10-16T04:43:25;15.00;99.90
9167;DHT22;4618;48.818;9.088;2022-10-16T04:45:51;14.90;99.90
9167;DHT22;4618;48.818;9.088;2022-10-16T04:48:17;14.90;1.00
9167;DHT22;4618;48.818;9.088;2022-10-16T04:50:43;14.90;1.00
9167;DHT22;4618;48.818;9.088;2022-10-16T04:53:09;15.00;1.00
9167;DHT22;4618;48.818;9.088;2022-10-16T04:55:34;15.00;99.90
9167;DHT22;4618;48.818;9.088;2022-10-16T04:58:00;15.00;99.90
9167;DHT22;4618;48.818;9.088;2022-10-16T05:00:25;15.00;1.00
9167;DHT22;4618;48.818;9.088;2022-10-16T05:02:51;15.00;99.90
9167;DHT22;4618;48.818;9.088;2022-10-16T05:05:17;14.90;99.90
9167;DHT22;4618;48.818;9.088;2022-10-16T05:07:48;14.90;1.00
9167;DHT22;4618;48.818;9.088;2022-10-16T05:10:15;15.00;1.00
9167;DHT22;4618;48.818;9.088;2022-10-16T05:12:40;14.90;1.00
9167;DHT22;4618;48.818;9.088;2022-10-16T05:15:06;14.80;1.00
9167;DHT22;4618;48.818;9.088;2022-10-16T05:17:32;14.70;99.90
9167;DHT22;4618;48.818;9.088;2022-10-16T05:19:57;14.60;99.90
9167;DHT22;4618;48.818;9.088;2022-10-16T05:22:23;14.60;1.00
9167;DHT22;4618;48.818;9.088;2022-10-16T05:24:49;14.50;1.00
9167;DHT22;4618;48.818;9.088;2022-10-16T05:27:14;14.50;1.00
9167;DHT22;4618;48.818;9.088;2022-10-16T05:29:47;14.50;1.00
9167;DHT22;4618;48.818;9.088;2022-10-16T05:32:14;14.40;91.90
9167;DHT22;4618;48.818;9.088;2022-10-16T05:34:40;14.30;99.90
9167;DHT22;4618;48.818;9.088;2022-10-16T05:37:06;14.30;99.90
9167;DHT22;4618;48.818;9.088;2022-10-16T05:39:32;14.30;99.90
9167;DHT22;4618;48.818;9.088;2022-10-16T05:41:57;14.20;1.00
9167;DHT22;4618;48.818;9.088;2022-10-16T05:44:23;14.20;1.00
9167;DHT22;4618;48.818;9.088;2022-10-16T05:46:49;14.20;1.00
9167;DHT22;4618;48.818;9.088;2022-10-16T05:49:14;14.30;1.00
9167;DHT22;4618;48.818;9.088;2022-10-16T05:51:40;14.30;1.00
9167;DHT22;4618;48.818;9.088;2022-10-16T05:54:07;14.30;1.00
9167;DHT22;4618;48.818;9.088;2022-10-16T05:56:32;14.40;1.00
9167;DHT22;4618;48.818;9.088;2022-10-16T05:58:58;14.40;99.90
9167;DHT22;4618;48.818;9.088;2022-10-16T06:01:23;14.50;99.90
9167;DHT22;4618;48.818;9.088;2022-10-16T06:03:51;14.60;99.90
9167;DHT22;4618;48.818;9.088;2022-10-16T06:06:20;14.60;52.40
9167;DHT22;4618;48.818;9.088;2022-10-16T06:08:47;14.60;1.00
9167;DHT22;4618;48.818;9.088;2022-10-16T06:11:19;14.70;1.00
9167;DHT22;4618;48.818;9.088;2022-10-16T06:13:45;14.80;99.90
9167;DHT22;4618;48.818;9.088;2022-10-16T06:16:14;14.80;99.90
9167;DHT22;4618;48.818;9.088;2022-10-16T06:18:39;14.90;99.90
9167;DHT22;4618;48.818;9.088;2022-10-16T06:21:10;14.80;99.90
9167;DHT22;4618;48.818;9.088;2022-10-16T06:23:37;14.90;99.90
9167;DHT22;4618;48.818;9.088;2022-10-16T06:28:32;15.00;1.00
9167;DHT22;4618;48.818;9.088;2022-10-16T06:31:02;15.10;99.90
9167;DHT22;4618;48.818;9.088;2022-10-16T06:33:28;15.30;99.90
9167;DHT22;4618;48.818;9.088;2022-10-16T06:35:53;15.30;99.90
9167;DHT22;4618;48.818;9.088;2022-10-16T06:38:19;15.50;1.00
9167;DHT22;4618;48.818;9.088;2022-10-16T06:40:45;15.60;99.90
9167;DHT22;4618;48.818;9.088;2022-10-16T06:43:10;15.70;99.90
9167;DHT22;4618;48.818;9.088;2022-10-16T06:45:36;15.80;1.00
9167;DHT22;4618;48.818;9.088;2022-10-16T06:48:01;15.90;1.00
9167;DHT22;4618;48.818;9.088;2022-10-16T06:50:27;16.00;99.90
9167;DHT22;4618;48.818;9.088;2022-10-16T06:52:52;16.10;99.90
9167;DHT22;4618;48.818;9.088;2022-10-16T06:55:18;16.10;99.90
9167;DHT22;4618;48.818;9.088;2022-10-16T06:57:43;16.10;1.00
9167;DHT22;4618;48.818;9.088;2022-10-16T07:00:12;16.10;1.00
9167;DHT22;4618;48.818;9.088;2022-10-16T07:02:37;16.30;1.00
9167;DHT22;4618;48.818;9.088;2022-10-16T07:05:03;16.30;1.00
9167;DHT22;4618;48.818;9.088;2022-10-16T07:07:29;16.40;1.00
9167;DHT22;4618;48.818;9.088;2022-10-16T07:09:54;16.40;99.90
9167;DHT22;4618;48.818;9.088;2022-10-16T07:12:20;16.60;1.00
9167;DHT22;4618;48.818;9.088;2022-10-16T07:14:46;16.70;99.90
9167;DHT22;4618;48.818;9.088;2022-10-16T07:17:11;16.80;99.90
9167;DHT22;4618;48.818;9.088;2022-10-16T07:19:37;16.60;99.90
9167;DHT22;4618;48.818;9.088;2022-10-16T07:22:03;16.70;99.90
9167;DHT22;4618;48.818;9.088;2022-10-16T07:24:28;16.70;1.00
9167;DHT22;4618;48.818;9.088;2022-10-16T07:26:54;16.70;50.50
9167;DHT22;4618;48.818;9.088;2022-10-16T07:29:21;16.80;18.50
9167;DHT22;4618;48.818;9.088;2022-10-16T07:31:47;16.80;99.90
9167;DHT22;4618;48.818;9.088;2022-10-16T07:34:15;16.60;99.90
9167;DHT22;4618;48.818;9.088;2022-10-16T07:36:41;16.60;99.90
9167;DHT22;4618;48.818;9.088;2022-10-16T07:39:08;16.70;1.00
9167;DHT22;4618;48.818;9.088;2022-10-16T07:41:33;16.60;1.00
9167;DHT22;4618;48.818;9.088;2022-10-16T07:44:02;16.50;1.00
9167;DHT22;4618;48.818;9.088;2022-10-16T07:46:29;16.60;1.00
9167;DHT22;4618;48.818;9.088;2022-10-16T07:48:55;16.60;1.00
9167;DHT22;4618;48.818;9.088;2022-10-16T07:51:23;16.80;1.00
9167;DHT22;4618;48.818;9.088;2022-10-16T07:53:49;16.90;99.90
9167;DHT22;4618;48.818;9.088;2022-10-16T07:56:16;17.10;99.90
9167;DHT22;4618;48.818;9.088;2022-10-16T07:58:41;17.30;1.00
9167;DHT22;4618;48.818;9.088;2022-10-16T08:01:10;17.50;1.00
9167;DHT22;4618;48.818;9.088;2022-10-16T08:03:36;17.70;1.00
9167;DHT22;4618;48.818;9.088;2022-10-16T08:06:02;17.80;99.90
9167;DHT22;4618;48.818;9.088;2022-10-16T08:08:28;17.90;1.00
9167;DHT22;4618;48.818;9.088;2022-10-16T08:10:54;18.20;99.90
9167;DHT22;4618;48.818;9.088;2022-10-16T08:13:20;18.30;47.30
9167;DHT22;4618;48.818;9.088;2022-10-16T08:15:46;18.70;58.80
9167;DHT22;4618;48.818;9.088;2022-10-16T08:18:14;19.10;1.00
9167;DHT22;4618;48.818;9.088;2022-10-16T08:20:41;19.80;1.00
9167;DHT22;4618;48.818;9.088;2022-10-16T08:23:06;20.00;63.50
9167;DHT22;4618;48.818;9.088;2022-10-16T08:25:35;19.50;99.90
9167;DHT22;4618;48.818;9.088;2022-10-16T08:28:03;19.80;99.90
9167;DHT22;4618;48.818;9.088;2022-10-16T08:30:30;19.90;1.00
9167;DHT22;4618;48.818;9.088;2022-10-16T08:32:55;19.80;1.00
9167;DHT22;4618;48.818;9.088;2022-10-16T08:35:21;19.50;99.90
9167;DHT22;4618;48.818;9.088;2022-10-16T08:37:46;19.60;80.20
9167;DHT22;4618;48.818;9.088;2022-10-16T08:40:22;19.50;84.50
9167;DHT22;4618;48.818;9.088;2022-10-16T08:51:02;18.80;1.00
9167;DHT22;4618;48.818;9.088;2022-10-16T08:53:31;18.90;99.90
9167;DHT22;4618;48.818;9.088;2022-10-16T08:55:59;18.90;99.90
9167;DHT22;4618;48.818;9.088;2022-10-16T08:58:29;18.90;99.90
9167;DHT22;4618;48.818;9.088;2022-10-16T09:01:00;18.90;99.90
9167;DHT22;4618;48.818;9.088;2022-10-16T09:06:50;19.10;99.90
9167;DHT22;4618;48.818;9.088;2022-10-16T09:20:19;19.40;1.00
9167;DHT22;4618;48.818;9.088;2022-10-16T09:22:45;19.50;1.00
9167;DHT22;4618;48.818;9.088;2022-10-16T09:25:17;19.60;1.00
9167;DHT22;4618;48.818;9.088;2022-10-16T09:27:46;19.60;1.00
9167;DHT22;4618;48.818;9.088;2022-10-16T09:30:17;19.70;1.00
9167;DHT22;4618;48.818;9.088;2022-10-16T09:32:45;19.70;1.00
9167;DHT22;4618;48.818;9.088;2022-10-16T09:35:18;19.80;1.00
9167;DHT22;4618;48.818;9.088;2022-10-16T09:37:47;19.70;1.00
9167;DHT22;4618;48.818;9.088;2022-10-16T09:40:28;19.60;1.00
9167;DHT22;4618;48.818;9.088;2022-10-16T09:45:29;19.80;99.90
9167;DHT22;4618;48.818;9.088;2022-10-16T09:47:54;19.90;99.90
9167;DHT22;4618;48.818;9.088;2022-10-16T09:50:26;20.10;99.90
9167;DHT22;4618;48.818;9.088;2022-10-16T09:53:08;20.40;99.90
9167;DHT22;4618;48.818;9.088;2022-10-16T09:55:36;20.60;99.90
9167;DHT22;4618;48.818;9.088;2022-10-16T09:58:01;21.30;1.00
9167;DHT22;4618;48.818;9.088;2022-10-16T10:00:27;21.70;1.00
9167;DHT22;4618;48.818;9.088;2022-10-16T10:02:53;21.90;1.00
9167;DHT22;4618;48.818;9.088;2022-10-16T10:05:25;22.10;1.00
9167;DHT22;4618;48.818;9.088;2022-10-16T10:08:01;22.10;99.90
9167;DHT22;4618;48.818;9.088;2022-10-16T10:10:33;21.80;99.90
9167;DHT22;4618;48.818;9.088;2022-10-16T10:13:00;21.90;99.90
9167;DHT22;4618;48.818;9.088;2022-10-16T10:15:29;21.60;99.90
9167;DHT22;4618;48.818;9.088;2022-10-16T10:17:58;21.90;99.90
9167;DHT22;4618;48.818;9.088;2022-10-16T10:20:25;22.10;99.90
9167;DHT22;4618;48.818;9.088;2022-10-16T10:22:51;22.70;1.00
9167;DHT22;4618;48.818;9.088;2022-10-16T10:31:07;22.80;1.00
9167;DHT22;4618;48.818;9.088;2022-10-16T10:33:52;22.20;32.70
9167;DHT22;4618;48.818;9.088;2022-10-16T10:36:27;22.40;1.00
9167;DHT22;4618;48.818;9.088;2022-10-16T10:47:05;22.90;1.00
9167;DHT22;4618;48.818;9.088;2022-10-16T10:54:46;25.00;99.90
9167;DHT22;4618;48.818;9.088;2022-10-16T10:57:47;24.80;99.90
9167;DHT22;4618;48.818;9.088;2022-10-16T11:00:21;24.20;1.00
9167;DHT22;4618;48.818;9.088;2022-10-16T11:05:50;24.10;1.00
9167;DHT22;4618;48.818;9.088;2022-10-16T11:09:15;24.60;1.00
9167;DHT22;4618;48.818;9.088;2022-10-16T11:12:01;24.80;99.90
9167;DHT22;4618;48.818;9.088;2022-10-16T11:14:34;25.00;99.90
9167;DHT22;4618;48.818;9.088;2022-10-16T11:17:15;26.30;99.90
9167;DHT22;4618;48.818;9.088;2022-10-16T11:19:51;27.90;99.90
9167;DHT22;4618;48.818;9.088;2022-10-16T11:24:59;27.60;99.90
9167;DHT22;4618;48.818;9.088;2022-10-16T11:30:58;26.60;99.90
9167;DHT22;4618;48.818;9.088;2022-10-16T11:34:13;26.40;99.90
9167;DHT22;4618;48.818;9.088;2022-10-16T11:36:52;26.30;99.90
9167;DHT22;4618;48.818;9.088;2022-10-16T11:39:24;26.40;99.90
9167;DHT22;4618;48.818;9.088;2022-10-16T11:42:19;26.60;99.90
9167;DHT22;4618;48.818;9.088;2022-10-16T11:47:45;26.10;99.90
9167;DHT22;4618;48.818;9.088;2022-10-16T11:55:55;27.10;99.90
9167;DHT22;4618;48.818;9.088;2022-10-16T11:58:25;26.40;99.90
9167;DHT22;4618;48.818;9.088;2022-10-16T12:01:00;27.50;99.90
9167;DHT22;4618;48.818;9.088;2022-10-16T12:08:43;28.10;99.90
9167;DHT22;4618;48.818;9.088;2022-10-16T12:16:59;28.00;99.90
9167;DHT22;4618;48.818;9.088;2022-10-16T12:19:26;26.50;99.90
9167;DHT22;4618;48.818;9.088;2022-10-16T12:21:55;25.70;99.90
9167;DHT22;4618;48.818;9.088;2022-10-16T12:24:38;26.10;99.90
9167;DHT22;4618;48.818;9.088;2022-10-16T12:27:24;26.60;99.90
9167;DHT22;4618;48.818;9.088;2022-10-16T12:30:00;27.70;99.90
9167;DHT22;4618;48.818;9.088;2022-10-16T12:34:55;30.00;99.90
9167;DHT22;4618;48.818;9.088;2022-10-16T12:39:49;28.20;99.90
9167;DHT22;4618;48.818;9.088;2022-10-16T12:42:31;26.80;99.90
9167;DHT22;4618;48.818;9.088;2022-10-16T12:44:57;26.80;99.90
9167;DHT22;4618;48.818;9.088;2022-10-16T12:49:56;29.20;99.90
9167;DHT22;4618;48.818;9.088;2022-10-16T12:52:36;30.00;99.90
9167;DHT22;4618;48.818;9.088;2022-10-16T12:55:03;30.60;99.90
9167;DHT22;4618;48.818;9.088;2022-10-16T13:00:50;30.10;99.90
9167;DHT22;4618;48.818;9.088;2022-10-16T13:03:43;29.30;99.90
9167;DHT22;4618;48.818;9.088;2022-10-16T13:06:14;28.60;99.90
9167;DHT22;4618;48.818;9.088;2022-10-16T13:30:27;28.00;99.90
9167;DHT22;4618;48.818;9.088;2022-10-16T13:35:33;27.40;99.90
9167;DHT22;4618;48.818;9.088;2022-10-16T13:38:12;26.70;99.90
9167;DHT22;4618;48.818;9.088;2022-10-16T13:41:00;26.40;99.90
9167;DHT22;4618;48.818;9.088;2022-10-16T13:43:32;26.20;99.90
9167;DHT22;4618;48.818;9.088;2022-10-16T13:46:00;26.40;99.90
9167;DHT22;4618;48.818;9.088;2022-10-16T13:48:28;27.00;99.90
9167;DHT22;4618;48.818;9.088;2022-10-16T13:53:37;29.30;99.90
9167;DHT22;4618;48.818;9.088;2022-10-16T13:56:05;29.80;99.90
9167;DHT22;4618;48.818;9.088;2022-10-16T13:58:31;29.60;99.90
9167;DHT22;4618;48.818;9.088;2022-10-16T14:01:00;28.90;99.90
9167;DHT22;4618;48.818;9.088;2022-10-16T14:03:27;27.90;99.90
9167;DHT22;4618;48.818;9.088;2022-10-16T14:05:56;27.40;99.90
9167;DHT22;4618;48.818;9.088;2022-10-16T14:08:25;26.60;99.90
9167;DHT22;4618;48.818;9.088;2022-10-16T14:10:55;26.40;99.90
9167;DHT22;4618;48.818;9.088;2022-10-16T14:13:37;26.10;99.90
9167;DHT22;4618;48.818;9.088;2022-10-16T14:16:15;26.30;99.90
9167;DHT22;4618;48.818;9.088;2022-10-16T14:18:46;26.60;99.90
9167;DHT22;4618;48.818;9.088;2022-10-16T14:21:15;26.40;99.90
9167;DHT22;4618;48.818;9.088;2022-10-16T14:23:41;26.10;99.90
9167;DHT22;4618;48.818;9.088;2022-10-16T14:28:37;25.50;1.00
9167;DHT22;4618;48.818;9.088;2022-10-16T14:31:23;25.50;1.00
9167;DHT22;4618;48.818;9.088;2022-10-16T14:33:49;25.30;1.00
9167;DHT22;4618;48.818;9.088;2022-10-16T14:36:16;25.00;1.00
9167;DHT22;4618;48.818;9.088;2022-10-16T14:39:15;25.00;1.00
9167;DHT22;4618;48.818;9.088;2022-10-16T14:41:44;24.90;1.00
9167;DHT22;4618;48.818;9.088;2022-10-16T14:44:11;25.10;1.00
9167;DHT22;4618;48.818;9.088;2022-10-16T14:46:39;25.90;99.90
9167;DHT22;4618;48.818;9.088;2022-10-16T14:51:40;26.30;99.90
9167;DHT22;4618;48.818;9.088;2022-10-16T14:54:11;25.60;1.00
9167;DHT22;4618;48.818;9.088;2022-10-16T14:56:47;25.20;1.00
9167;DHT22;4618;48.818;9.088;2022-10-16T14:59:20;25.30;1.00
9167;DHT22;4618;48.818;9.088;2022-10-16T15:01:47;25.70;1.00
9167;DHT22;4618;48.818;9.088;2022-10-16T15:04:13;26.20;1.00
9167;DHT22;4618;48.818;9.088;2022-10-16T15:06:39;26.30;99.90
9167;DHT22;4618;48.818;9.088;2022-10-16T15:09:05;26.60;99.90
9167;DHT22;4618;48.818;9.088;2022-10-16T15:11:32;26.30;99.90
9167;DHT22;4618;48.818;9.088;2022-10-16T15:13:58;25.70;1.00
9167;DHT22;4618;48.818;9.088;2022-10-16T15:16:24;25.60;1.00
9167;DHT22;4618;48.818;9.088;2022-10-16T15:18:49;25.90;1.00
9167;DHT22;4618;48.818;9.088;2022-10-16T15:21:27;25.90;1.00
9167;DHT22;4618;48.818;9.088;2022-10-16T15:23:54;24.90;1.00
9167;DHT22;4618;48.818;9.088;2022-10-16T15:26:19;25.10;1.00
9167;DHT22;4618;48.818;9.088;2022-10-16T15:28:45;25.30;1.00
9167;DHT22;4618;48.818;9.088;2022-10-16T15:31:11;25.60;1.00
9167;DHT22;4618;48.818;9.088;2022-10-16T15:33:36;25.90;1.00
9167;DHT22;4618;48.818;9.088;2022-10-16T15:36:02;26.10;1.00
9167;DHT22;4618;48.818;9.088;2022-10-16T15:38:28;25.90;1.00
9167;DHT22;4618;48.818;9.088;2022-10-16T15:40:55;25.50;1.00
9167;DHT22;4618;48.818;9.088;2022-10-16T15:43:21;25.00;1.00
9167;DHT22;4618;48.818;9.088;2022-10-16T15:45:59;24.50;1.00
9167;DHT22;4618;48.818;9.088;2022-10-16T15:48:25;24.10;1.00
9167;DHT22;4618;48.818;9.088;2022-10-16T15:50:51;24.40;68.40
9167;DHT22;4618;48.818;9.088;2022-10-16T15:53:17;24.30;1.00
9167;DHT22;4618;48.818;9.088;2022-10-16T15:55:42;24.00;99.90
9167;DHT22;4618;48.818;9.088;2022-10-16T15:58:08;23.90;99.90
9167;DHT22;4618;48.818;9.088;2022-10-16T16:00:39;24.10;1.00
9167;DHT22;4618;48.818;9.088;2022-10-16T16:03:05;24.00;1.00
9167;DHT22;4618;48.818;9.088;2022-10-16T16:05:30;23.90;1.00
9167;DHT22;4618;48.818;9.088;2022-10-16T16:07:58;23.80;14.20
9167;DHT22;4618;48.818;9.088;2022-10-16T16:10:24;23.40;99.90
9167;DHT22;4618;48.818;9.088;2022-10-16T16:12:50;23.30;99.90
9167;DHT22;4618;48.818;9.088;2022-10-16T16:15:19;23.10;99.90
9167;DHT22;4618;48.818;9.088;2022-10-16T16:17:45;22.80;1.00
9167;DHT22;4618;48.818;9.088;2022-10-16T16:20:11;22.40;1.00
9167;DHT22;4618;48.818;9.088;2022-10-16T16:22:36;22.20;1.00
9167;DHT22;4618;48.818;9.088;2022-10-16T16:25:02;21.60;99.90
9167;DHT22;4618;48.818;9.088;2022-10-16T16:27:28;21.20;1.00
9167;DHT22;4618;48.818;9.088;2022-10-16T16:29:55;20.90;1.00
9167;DHT22;4618;48.818;9.088;2022-10-16T16:32:21;20.60;99.90
9167;DHT22;4618;48.818;9.088;2022-10-16T16:34:47;20.40;99.90
9167;DHT22;4618;48.818;9.088;2022-10-16T16:37:13;20.10;1.00
9167;DHT22;4618;48.818;9.088;2022-10-16T16:39:38;19.90;1.00
9167;DHT22;4618;48.818;9.088;2022-10-16T16:42:04;19.70;98.90
9167;DHT22;4618;48.818;9.088;2022-10-16T16:44:32;19.50;99.90
9167;DHT22;4618;48.818;9.088;2022-10-16T16:46:57;19.50;11.90
9167;DHT22;4618;48.818;9.088;2022-10-16T16:49:23;19.50;7.00
9167;DHT22;4618;48.818;9.088;2022-10-16T16:51:49;19.30;99.90
9167;DHT22;4618;48.818;9.088;2022-10-16T16:54:14;19.20;99.90
9167;DHT22;4618;48.818;9.088;2022-10-16T16:56:40;19.20;78.10
9167;DHT22;4618;48.818;9.088;2022-10-16T16:59:13;19.10;46.50
9167;DHT22;4618;48.818;9.088;2022-10-16T17:01:40;19.00;99.90
9167;DHT22;4618;48.818;9.088;2022-10-16T17:04:05;19.10;97.40
9167;DHT22;4618;48.818;9.088;2022-10-16T17:06:31;19.10;1.00
9167;DHT22;4618;48.818;9.088;2022-10-16T17:08:57;19.10;1.00
9167;DHT22;4618;48.818;9.088;2022-10-16T17:11:27;19.10;1.00
9167;DHT22;4618;48.818;9.088;2022-10-16T17:13:54;19.10;1.00
9167;DHT22;4618;48.818;9.088;2022-10-16T17:16:30;19.10;1.00
9167;DHT22;4618;48.818;9.088;2022-10-16T17:19:00;19.10;1.00
9167;DHT22;4618;48.818;9.088;2022-10-16T17:21:26;19.00;1.00
9167;DHT22;4618;48.818;9.088;2022-10-16T17:23:52;19.00;1.00
9167;DHT22;4618;48.818;9.088;2022-10-16T17:26:18;18.90;1.00
9167;DHT22;4618;48.818;9.088;2022-10-16T17:28:44;18.80;1.00
9167;DHT22;4618;48.818;9.088;2022-10-16T17:31:10;18.80;1.00
9167;DHT22;4618;48.818;9.088;2022-10-16T17:33:37;18.80;1.00
9167;DHT22;4618;48.818;9.088;2022-10-16T17:36:02;18.70;1.00
9167;DHT22;4618;48.818;9.088;2022-10-16T17:38:28;18.50;1.00
9167;DHT22;4618;48.818;9.088;2022-10-16T17:40:54;18.40;1.00
9167;DHT22;4618;48.818;9.088;2022-10-16T17:43:19;18.30;1.00
9167;DHT22;4618;48.818;9.088;2022-10-16T17:45:45;18.20;99.90
9167;DHT22;4618;48.818;9.088;2022-10-16T17:48:10;18.00;1.00
9167;DHT22;4618;48.818;9.088;2022-10-16T17:50:40;17.80;99.90
9167;DHT22;4618;48.818;9.088;2022-10-16T17:53:05;17.50;99.90
9167;DHT22;4618;48.818;9.088;2022-10-16T17:55:37;17.10;1.00
9167;DHT22;4618;48.818;9.088;2022-10-16T17:58:02;17.00;99.90
9167;DHT22;4618;48.818;9.088;2022-10-16T18:00:28;16.90;99.90
9167;DHT22;4618;48.818;9.088;2022-10-16T18:02:54;16.80;99.90
9167;DHT22;4618;48.818;9.088;2022-10-16T18:05:19;16.80;1.00
9167;DHT22;4618;48.818;9.088;2022-10-16T18:07:45;16.80;34.40
9167;DHT22;4618;48.818;9.088;2022-10-16T18:10:10;16.70;99.90
9167;DHT22;4618;48.818;9.088;2022-10-16T18:12:36;16.60;1.00
9167;DHT22;4618;48.818;9.088;2022-10-16T18:15:02;16.60;1.00
9167;DHT22;4618;48.818;9.088;2022-10-16T18:17:28;16.60;1.00
9167;DHT22;4618;48.818;9.088;2022-10-16T18:19:55;16.60;99.90
9167;DHT22;4618;48.818;9.088;2022-10-16T18:22:21;16.70;55.60
9167;DHT22;4618;48.818;9.088;2022-10-16T18:24:48;16.80;1.00
9167;DHT22;4618;48.818;9.088;2022-10-16T18:27:13;16.80;1.00
9167;DHT22;4618;48.818;9.088;2022-10-16T18:29:39;16.90;1.00
9167;DHT22;4618;48.818;9.088;2022-10-16T18:32:04;16.90;99.90
9167;DHT22;4618;48.818;9.088;2022-10-16T18:34:30;16.90;99.90